sensor_id;sensor_type;location;lat;lon;timestamp;temperature;humidity
53422;DHT22;39319;52.944;5.928;2023-04-15T00:00:06;11.10;87.50
53422;DHT22;39319;52.944;5.928;2023-04-15T00:02:32;11.10;88.20
53422;DHT22;39319;52.944;5.928;2023-04-15T00:04:58;10.90;88.00
53422;DHT22;39319;52.944;5.928;2023-04-15T00:07:23;10.90;88.10
53422;DHT22;39319;52.944;5.928;2023-04-15T00:09:49;10.90;88.30
53422;DHT22;39319;52.944;5.928;2023-04-15T00:12:20;10.90;88.50
53422;DHT22;39319;52.944;5.928;2023-04-15T00:14:48;10.90;88.20
53422;DHT22;39319;52.944;5.928;2023-04-15T00:17:14;10.80;88.60
53422;DHT22;39319;52.944;5.928;2023-04-15T00:19:41;10.70;88.60
53422;DHT22;39319;52.944;5.928;2023-04-15T00:22:08;10.70;88.80
53422;DHT22;39319;52.944;5.928;2023-04-15T00:24:34;10.70;89.00
53422;DHT22;39319;52.944;5.928;2023-04-15T00:27:00;10.70;88.90
53422;DHT22;39319;52.944;5.928;2023-04-15T00:29:25;10.60;89.10
53422;DHT22;39319;52.944;5.928;2023-04-15T00:31:51;10.60;89.10
53422;DHT22;39319;52.944;5.928;2023-04-15T00:34:17;10.50;89.40
53422;DHT22;39319;52.944;5.928;2023-04-15T00:36:43;10.50;89.30
53422;DHT22;39319;52.944;5.928;2023-04-15T00:39:09;10.50;89.40
53422;DHT22;39319;52.944;5.928;2023-04-15T00:41:34;10.50;89.30
53422;DHT22;39319;52.944;5.928;2023-04-15T00:44:05;10.30;89.60
53422;DHT22;39319;52.944;5.928;2023-04-15T00:46:31;10.40;89.70
53422;DHT22;39319;52.944;5.928;2023-04-15T00:48:58;10.40;89.90
53422;DHT22;39319;52.944;5.928;2023-04-15T00:51:23;10.50;89.90
53422;DHT22;39319;52.944;5.928;2023-04-15T00:53:50;10.30;89.80
53422;DHT22;39319;52.944;5.928;2023-04-15T00:56:16;10.20;90.00
53422;DHT22;39319;52.944;5.928;2023-04-15T00:58:43;10.10;90.00
53422;DHT22;39319;52.944;5.928;2023-04-15T01:01:09;10.10;90.00
53422;DHT22;39319;52.944;5.928;2023-04-15T01:03:35;10.20;90.10
53422;DHT22;39319;52.944;5.928;2023-04-15T01:06:02;10.20;90.10
53422;DHT22;39319;52.944;5.928;2023-04-15T01:08:28;10.10;90.20
53422;DHT22;39319;52.944;5.928;2023-04-15T01:10:58;10.10;90.20
53422;DHT22;39319;52.944;5.928;2023-04-15T01:13:25;10.00;90.30
53422;DHT22;39319;52.944;5.928;2023-04-15T01:15:52;9.90;90.20
53422;DHT22;39319;52.944;5.928;2023-04-15T01:18:18;9.90;90.30
53422;DHT22;39319;52.944;5.928;2023-04-15T01:20:44;10.00;90.30
53422;DHT22;39319;52.944;5.928;2023-04-15T01:23:10;9.90;90.40
53422;DHT22;39319;52.944;5.928;2023-04-15T01:25:36;9.80;90.40
53422;DHT22;39319;52.944;5.928;2023-04-15T01:28:02;9.80;90.40
53422;DHT22;39319;52.944;5.928;2023-04-15T01:30:33;9.70;90.60
53422;DHT22;39319;52.944;5.928;2023-04-15T01:32:59;9.60;90.60
53422;DHT22;39319;52.944;5.928;2023-04-15T01:35:25;9.70;90.70
53422;DHT22;39319;52.944;5.928;2023-04-15T01:37:52;9.60;90.80
53422;DHT22;39319;52.944;5.928;2023-04-15T01:40:22;9.70;90.80
53422;DHT22;39319;52.944;5.928;2023-04-15T01:42:48;9.60;90.70
53422;DHT22;39319;52.944;5.928;2023-04-15T01:45:13;9.60;91.00
53422;DHT22;39319;52.944;5.928;2023-04-15T01:47:39;9.50;91.00
53422;DHT22;39319;52.944;5.928;2023-04-15T01:50:05;9.60;91.00
53422;DHT22;39319;52.944;5.928;2023-04-15T01:52:31;9.40;90.90
53422;DHT22;39319;52.944;5.928;2023-04-15T01:54:57;9.50;91.00
53422;DHT22;39319;52.944;5.928;2023-04-15T01:57:23;9.40;91.10
53422;DHT22;39319;52.944;5.928;2023-04-15T01:59:49;9.40;91.20
53422;DHT22;39319;52.944;5.928;2023-04-15T02:02:14;9.40;91.30
53422;DHT22;39319;52.944;5.928;2023-04-15T02:04:43;9.40;91.40
53422;DHT22;39319;52.944;5.928;2023-04-15T02:07:09;9.40;91.60
53422;DHT22;39319;52.944;5.928;2023-04-15T02:09:34;9.20;91.30
53422;DHT22;39319;52.944;5.928;2023-04-15T02:12:00;9.20;91.40
53422;DHT22;39319;52.944;5.928;2023-04-15T02:14:26;9.10;91.30
53422;DHT22;39319;52.944;5.928;2023-04-15T02:16:51;9.20;91.60
53422;DHT22;39319;52.944;5.928;2023-04-15T02:19:17;9.30;91.60
53422;DHT22;39319;52.944;5.928;2023-04-15T02:21:43;9.20;91.80
53422;DHT22;39319;52.944;5.928;2023-04-15T02:24:09;9.20;91.80
53422;DHT22;39319;52.944;5.928;2023-04-15T02:26:36;9.30;91.80
53422;DHT22;39319;52.944;5.928;2023-04-15T02:29:02;9.20;91.90
53422;DHT22;39319;52.944;5.928;2023-04-15T02:31:28;9.20;91.90
53422;DHT22;39319;52.944;5.928;2023-04-15T02:33:54;9.10;91.80
53422;DHT22;39319;52.944;5.928;2023-04-15T02:36:19;9.20;91.90
53422;DHT22;39319;52.944;5.928;2023-04-15T02:38:45;9.10;92.00
53422;DHT22;39319;52.944;5.928;2023-04-15T02:41:11;9.20;91.90
53422;DHT22;39319;52.944;5.928;2023-04-15T02:43:37;9.10;91.80
53422;DHT22;39319;52.944;5.928;2023-04-15T02:46:04;9.00;91.90
53422;DHT22;39319;52.944;5.928;2023-04-15T02:48:30;8.90;91.90
53422;DHT22;39319;52.944;5.928;2023-04-15T02:51:19;9.10;92.00
53422;DHT22;39319;52.944;5.928;2023-04-15T02:53:49;8.90;91.90
53422;DHT22;39319;52.944;5.928;2023-04-15T02:56:15;9.00;92.00
53422;DHT22;39319;52.944;5.928;2023-04-15T02:58:42;8.90;92.00
53422;DHT22;39319;52.944;5.928;2023-04-15T03:01:09;9.00;92.20
53422;DHT22;39319;52.944;5.928;2023-04-15T03:03:35;8.90;92.40
53422;DHT22;39319;52.944;5.928;2023-04-15T03:06:01;8.80;92.40
53422;DHT22;39319;52.944;5.928;2023-04-15T03:08:26;8.90;92.30
53422;DHT22;39319;52.944;5.928;2023-04-15T03:10:52;9.00;92.50
53422;DHT22;39319;52.944;5.928;2023-04-15T03:13:19;8.80;92.40
53422;DHT22;39319;52.944;5.928;2023-04-15T03:15:46;8.90;92.50
53422;DHT22;39319;52.944;5.928;2023-04-15T03:18:12;8.60;92.60
53422;DHT22;39319;52.944;5.928;2023-04-15T03:20:37;8.60;92.70
53422;DHT22;39319;52.944;5.928;2023-04-15T03:23:03;8.70;92.70
53422;DHT22;39319;52.944;5.928;2023-04-15T03:25:29;8.70;92.70
53422;DHT22;39319;52.944;5.928;2023-04-15T03:27:54;8.70;92.80
53422;DHT22;39319;52.944;5.928;2023-04-15T03:30:20;8.90;92.70
53422;DHT22;39319;52.944;5.928;2023-04-15T03:32:46;8.70;92.70
53422;DHT22;39319;52.944;5.928;2023-04-15T03:35:12;8.60;92.70
53422;DHT22;39319;52.944;5.928;2023-04-15T03:37:37;8.70;92.80
53422;DHT22;39319;52.944;5.928;2023-04-15T03:40:03;8.80;92.90
53422;DHT22;39319;52.944;5.928;2023-04-15T03:42:30;8.70;92.90
53422;DHT22;39319;52.944;5.928;2023-04-15T03:44:55;8.70;93.00
53422;DHT22;39319;52.944;5.928;2023-04-15T03:47:21;8.50;92.90
53422;DHT22;39319;52.944;5.928;2023-04-15T03:49:47;8.70;93.00
53422;DHT22;39319;52.944;5.928;2023-04-15T03:52:13;8.60;92.90
53422;DHT22;39319;52.944;5.928;2023-04-15T03:54:38;8.60;93.00
53422;DHT22;39319;52.944;5.928;2023-04-15T03:57:04;8.50;92.90
53422;DHT22;39319;52.944;5.928;2023-04-15T03:59:30;8.50;93.00
53422;DHT22;39319;52.944;5.928;2023-04-15T04:01:58;8.40;92.90
53422;DHT22;39319;52.944;5.928;2023-04-15T04:04:24;8.50;93.00
53422;DHT22;39319;52.944;5.928;2023-04-15T04:06:49;8.50;93.10
53422;DHT22;39319;52.944;5.928;2023-04-15T04:09:15;8.40;93.00
53422;DHT22;39319;52.944;5.928;2023-04-15T04:11:41;8.40;93.10
53422;DHT22;39319;52.944;5.928;2023-04-15T04:14:06;8.40;93.10
53422;DHT22;39319;52.944;5.928;2023-04-15T04:16:32;8.50;93.10
53422;DHT22;39319;52.944;5.928;2023-04-15T04:18:58;8.30;93.20
53422;DHT22;39319;52.944;5.928;2023-04-15T04:21:23;8.30;93.10
53422;DHT22;39319;52.944;5.928;2023-04-15T04:23:49;8.50;93.20
53422;DHT22;39319;52.944;5.928;2023-04-15T04:26:15;8.30;93.10
53422;DHT22;39319;52.944;5.928;2023-04-15T04:28:41;8.40;93.10
53422;DHT22;39319;52.944;5.928;2023-04-15T04:31:07;8.30;93.10
53422;DHT22;39319;52.944;5.928;2023-04-15T04:33:32;8.30;93.10
53422;DHT22;39319;52.944;5.928;2023-04-15T04:35:58;8.10;93.00
53422;DHT22;39319;52.944;5.928;2023-04-15T04:38:24;8.30;93.10
53422;DHT22;39319;52.944;5.928;2023-04-15T04:40:50;8.00;93.10
53422;DHT22;39319;52.944;5.928;2023-04-15T04:43:16;8.00;93.00
53422;DHT22;39319;52.944;5.928;2023-04-15T04:45:41;8.10;93.00
53422;DHT22;39319;52.944;5.928;2023-04-15T04:48:07;7.90;93.00
53422;DHT22;39319;52.944;5.928;2023-04-15T04:50:34;8.10;93.00
53422;DHT22;39319;52.944;5.928;2023-04-15T04:53:01;8.00;93.10
53422;DHT22;39319;52.944;5.928;2023-04-15T04:55:27;7.90;93.20
53422;DHT22;39319;52.944;5.928;2023-04-15T04:57:52;7.90;93.10
53422;DHT22;39319;52.944;5.928;2023-04-15T05:00:18;7.80;93.20
53422;DHT22;39319;52.944;5.928;2023-04-15T05:02:44;8.10;93.30
53422;DHT22;39319;52.944;5.928;2023-04-15T05:05:10;8.00;93.40
53422;DHT22;39319;52.944;5.928;2023-04-15T05:07:37;8.00;93.40
53422;DHT22;39319;52.944;5.928;2023-04-15T05:10:04;7.80;93.40
53422;DHT22;39319;52.944;5.928;2023-04-15T05:12:30;7.90;93.50
53422;DHT22;39319;52.944;5.928;2023-04-15T05:14:56;7.90;93.60
53422;DHT22;39319;52.944;5.928;2023-04-15T05:17:22;7.90;93.70
53422;DHT22;39319;52.944;5.928;2023-04-15T05:19:48;8.10;93.80
53422;DHT22;39319;52.944;5.928;2023-04-15T05:22:14;8.10;93.90
53422;DHT22;39319;52.944;5.928;2023-04-15T05:24:40;8.00;93.90
53422;DHT22;39319;52.944;5.928;2023-04-15T05:27:05;8.00;93.90
53422;DHT22;39319;52.944;5.928;2023-04-15T05:29:33;8.20;94.00
53422;DHT22;39319;52.944;5.928;2023-04-15T05:31:59;7.90;94.00
53422;DHT22;39319;52.944;5.928;2023-04-15T05:34:25;8.10;94.10
53422;DHT22;39319;52.944;5.928;2023-04-15T05:36:50;8.00;94.20
53422;DHT22;39319;52.944;5.928;2023-04-15T05:39:17;8.10;94.30
53422;DHT22;39319;52.944;5.928;2023-04-15T05:41:43;8.20;94.50
53422;DHT22;39319;52.944;5.928;2023-04-15T05:44:09;8.00;94.50
53422;DHT22;39319;52.944;5.928;2023-04-15T05:46:34;8.30;94.70
53422;DHT22;39319;52.944;5.928;2023-04-15T05:49:00;8.10;94.70
53422;DHT22;39319;52.944;5.928;2023-04-15T05:51:26;8.30;94.90
53422;DHT22;39319;52.944;5.928;2023-04-15T05:53:52;8.40;94.90
53422;DHT22;39319;52.944;5.928;2023-04-15T05:56:20;8.30;94.90
53422;DHT22;39319;52.944;5.928;2023-04-15T05:58:46;8.60;95.00
53422;DHT22;39319;52.944;5.928;2023-04-15T06:01:12;8.60;95.10
53422;DHT22;39319;52.944;5.928;2023-04-15T06:03:38;8.70;95.20
53422;DHT22;39319;52.944;5.928;2023-04-15T06:06:04;8.70;95.20
53422;DHT22;39319;52.944;5.928;2023-04-15T06:08:29;8.50;95.20
53422;DHT22;39319;52.944;5.928;2023-04-15T06:10:55;8.80;95.20
53422;DHT22;39319;52.944;5.928;2023-04-15T06:13:25;8.70;95.10
53422;DHT22;39319;52.944;5.928;2023-04-15T06:15:51;9.00;95.30
53422;DHT22;39319;52.944;5.928;2023-04-15T06:18:18;9.00;95.40
53422;DHT22;39319;52.944;5.928;2023-04-15T06:20:45;9.20;95.40
53422;DHT22;39319;52.944;5.928;2023-04-15T06:23:10;9.30;95.40
53422;DHT22;39319;52.944;5.928;2023-04-15T06:25:36;9.20;95.40
53422;DHT22;39319;52.944;5.928;2023-04-15T06:28:02;9.30;95.30
53422;DHT22;39319;52.944;5.928;2023-04-15T06:30:28;9.40;95.10
53422;DHT22;39319;52.944;5.928;2023-04-15T06:32:54;9.30;95.10
53422;DHT22;39319;52.944;5.928;2023-04-15T06:35:20;9.40;95.30
53422;DHT22;39319;52.944;5.928;2023-04-15T06:37:46;9.70;95.30
53422;DHT22;39319;52.944;5.928;2023-04-15T06:40:12;9.60;95.20
53422;DHT22;39319;52.944;5.928;2023-04-15T06:42:38;9.70;95.10
53422;DHT22;39319;52.944;5.928;2023-04-15T06:45:04;9.80;95.20
53422;DHT22;39319;52.944;5.928;2023-04-15T06:47:31;9.80;95.30
53422;DHT22;39319;52.944;5.928;2023-04-15T06:49:56;9.80;95.20
53422;DHT22;39319;52.944;5.928;2023-04-15T06:52:22;9.90;95.20
53422;DHT22;39319;52.944;5.928;2023-04-15T06:54:48;10.00;95.30
53422;DHT22;39319;52.944;5.928;2023-04-15T06:57:13;10.00;95.50
53422;DHT22;39319;52.944;5.928;2023-04-15T06:59:39;10.20;95.70
53422;DHT22;39319;52.944;5.928;2023-04-15T07:02:06;10.20;95.60
53422;DHT22;39319;52.944;5.928;2023-04-15T07:04:33;10.30;95.60
53422;DHT22;39319;52.944;5.928;2023-04-15T07:07:01;10.40;95.70
53422;DHT22;39319;52.944;5.928;2023-04-15T07:09:27;10.30;95.80
53422;DHT22;39319;52.944;5.928;2023-04-15T07:11:52;10.50;95.90
53422;DHT22;39319;52.944;5.928;2023-04-15T07:14:18;10.50;96.00
53422;DHT22;39319;52.944;5.928;2023-04-15T07:16:44;10.50;96.00
53422;DHT22;39319;52.944;5.928;2023-04-15T07:19:10;10.60;96.00
53422;DHT22;39319;52.944;5.928;2023-04-15T07:21:36;10.70;96.00
53422;DHT22;39319;52.944;5.928;2023-04-15T07:24:02;10.80;96.10
53422;DHT22;39319;52.944;5.928;2023-04-15T07:26:27;10.90;96.20
53422;DHT22;39319;52.944;5.928;2023-04-15T07:28:53;11.00;95.70
53422;DHT22;39319;52.944;5.928;2023-04-15T07:31:19;11.00;95.60
53422;DHT22;39319;52.944;5.928;2023-04-15T07:33:44;11.20;95.50
53422;DHT22;39319;52.944;5.928;2023-04-15T07:36:10;11.20;95.30
53422;DHT22;39319;52.944;5.928;2023-04-15T07:38:36;11.30;95.30
53422;DHT22;39319;52.944;5.928;2023-04-15T07:41:02;11.30;95.10
53422;DHT22;39319;52.944;5.928;2023-04-15T07:43:27;11.50;95.00
53422;DHT22;39319;52.944;5.928;2023-04-15T07:45:54;11.50;95.30
53422;DHT22;39319;52.944;5.928;2023-04-15T07:48:19;11.60;95.10
53422;DHT22;39319;52.944;5.928;2023-04-15T07:50:45;11.40;94.60
53422;DHT22;39319;52.944;5.928;2023-04-15T07:53:13;11.60;94.60
53422;DHT22;39319;52.944;5.928;2023-04-15T07:55:39;11.60;94.60
53422;DHT22;39319;52.944;5.928;2023-04-15T07:58:05;11.60;94.50
53422;DHT22;39319;52.944;5.928;2023-04-15T08:00:31;11.80;94.60
53422;DHT22;39319;52.944;5.928;2023-04-15T08:02:57;11.70;94.80
53422;DHT22;39319;52.944;5.928;2023-04-15T08:05:24;11.70;94.40
53422;DHT22;39319;52.944;5.928;2023-04-15T08:07:50;11.70;94.40
53422;DHT22;39319;52.944;5.928;2023-04-15T08:10:16;11.80;94.30
53422;DHT22;39319;52.944;5.928;2023-04-15T08:12:42;11.80;94.40
53422;DHT22;39319;52.944;5.928;2023-04-15T08:15:08;11.80;94.50
53422;DHT22;39319;52.944;5.928;2023-04-15T08:17:34;11.90;94.70
53422;DHT22;39319;52.944;5.928;2023-04-15T08:19:59;12.10;94.60
53422;DHT22;39319;52.944;5.928;2023-04-15T08:22:25;12.10;94.20
53422;DHT22;39319;52.944;5.928;2023-04-15T08:24:52;12.30;94.10
53422;DHT22;39319;52.944;5.928;2023-04-15T08:27:18;12.00;93.90
53422;DHT22;39319;52.944;5.928;2023-04-15T08:29:44;12.30;94.20
53422;DHT22;39319;52.944;5.928;2023-04-15T08:32:10;12.40;93.70
53422;DHT22;39319;52.944;5.928;2023-04-15T08:34:35;12.40;93.30
53422;DHT22;39319;52.944;5.928;2023-04-15T08:37:01;12.70;93.50
53422;DHT22;39319;52.944;5.928;2023-04-15T08:39:27;12.70;93.20
53422;DHT22;39319;52.944;5.928;2023-04-15T08:42:03;12.80;92.50
53422;DHT22;39319;52.944;5.928;2023-04-15T08:44:34;12.90;92.30
53422;DHT22;39319;52.944;5.928;2023-04-15T08:47:02;12.90;92.10
53422;DHT22;39319;52.944;5.928;2023-04-15T08:49:28;12.90;91.90
53422;DHT22;39319;52.944;5.928;2023-04-15T08:51:54;12.80;91.90
53422;DHT22;39319;52.944;5.928;2023-04-15T08:54:22;12.90;92.00
53422;DHT22;39319;52.944;5.928;2023-04-15T08:56:49;13.00;92.10
53422;DHT22;39319;52.944;5.928;2023-04-15T08:59:14;13.00;91.50
53422;DHT22;39319;52.944;5.928;2023-04-15T09:01:41;13.00;91.00
53422;DHT22;39319;52.944;5.928;2023-04-15T09:04:06;13.10;91.00
53422;DHT22;39319;52.944;5.928;2023-04-15T09:06:33;13.00;91.30
53422;DHT22;39319;52.944;5.928;2023-04-15T09:08:59;13.10;91.10
53422;DHT22;39319;52.944;5.928;2023-04-15T09:11:25;12.90;90.70
53422;DHT22;39319;52.944;5.928;2023-04-15T09:13:51;13.10;90.80
53422;DHT22;39319;52.944;5.928;2023-04-15T09:16:17;13.10;90.70
53422;DHT22;39319;52.944;5.928;2023-04-15T09:18:43;12.90;91.10
53422;DHT22;39319;52.944;5.928;2023-04-15T09:21:10;12.90;91.40
53422;DHT22;39319;52.944;5.928;2023-04-15T09:23:39;13.10;91.40
53422;DHT22;39319;52.944;5.928;2023-04-15T09:26:05;12.90;91.30
53422;DHT22;39319;52.944;5.928;2023-04-15T09:28:31;12.90;91.60
53422;DHT22;39319;52.944;5.928;2023-04-15T09:31:00;12.90;91.50
53422;DHT22;39319;52.944;5.928;2023-04-15T09:33:28;13.10;91.60
53422;DHT22;39319;52.944;5.928;2023-04-15T09:36:02;13.00;91.70
53422;DHT22;39319;52.944;5.928;2023-04-15T09:38:29;13.00;91.50
53422;DHT22;39319;52.944;5.928;2023-04-15T09:40:56;13.00;91.30
53422;DHT22;39319;52.944;5.928;2023-04-15T09:43:35;13.10;91.40
53422;DHT22;39319;52.944;5.928;2023-04-15T09:46:01;13.00;91.30
53422;DHT22;39319;52.944;5.928;2023-04-15T09:48:27;12.90;91.30
53422;DHT22;39319;52.944;5.928;2023-04-15T09:50:57;12.90;91.50
53422;DHT22;39319;52.944;5.928;2023-04-15T09:53:23;12.80;91.50
53422;DHT22;39319;52.944;5.928;2023-04-15T09:55:58;13.00;91.40
53422;DHT22;39319;52.944;5.928;2023-04-15T09:58:32;13.00;91.50
53422;DHT22;39319;52.944;5.928;2023-04-15T10:01:01;13.30;91.40
53422;DHT22;39319;52.944;5.928;2023-04-15T10:03:33;13.30;90.80
53422;DHT22;39319;52.944;5.928;2023-04-15T10:06:00;13.40;90.70
53422;DHT22;39319;52.944;5.928;2023-04-15T10:08:28;13.60;90.90
53422;DHT22;39319;52.944;5.928;2023-04-15T10:10:54;13.80;90.50
53422;DHT22;39319;52.944;5.928;2023-04-15T10:13:22;14.10;90.60
53422;DHT22;39319;52.944;5.928;2023-04-15T10:16:15;14.20;90.30
53422;DHT22;39319;52.944;5.928;2023-04-15T10:18:46;14.50;90.10
53422;DHT22;39319;52.944;5.928;2023-04-15T10:21:13;14.60;88.60
53422;DHT22;39319;52.944;5.928;2023-04-15T10:23:45;14.70;87.80
53422;DHT22;39319;52.944;5.928;2023-04-15T10:26:12;14.70;87.60
53422;DHT22;39319;52.944;5.928;2023-04-15T10:28:40;14.50;88.00
53422;DHT22;39319;52.944;5.928;2023-04-15T10:31:06;14.40;88.10
53422;DHT22;39319;52.944;5.928;2023-04-15T10:33:33;14.30;87.10
53422;DHT22;39319;52.944;5.928;2023-04-15T10:36:00;14.50;87.90
53422;DHT22;39319;52.944;5.928;2023-04-15T10:38:37;14.40;87.00
53422;DHT22;39319;52.944;5.928;2023-04-15T10:41:12;14.60;86.40
53422;DHT22;39319;52.944;5.928;2023-04-15T10:43:39;14.70;87.10
53422;DHT22;39319;52.944;5.928;2023-04-15T10:46:05;14.90;86.50
53422;DHT22;39319;52.944;5.928;2023-04-15T10:48:31;15.10;87.40
53422;DHT22;39319;52.944;5.928;2023-04-15T10:50:59;15.10;85.20
53422;DHT22;39319;52.944;5.928;2023-04-15T10:53:28;15.10;85.30
53422;DHT22;39319;52.944;5.928;2023-04-15T10:55:54;15.00;85.50
53422;DHT22;39319;52.944;5.928;2023-04-15T10:58:23;14.90;85.70
53422;DHT22;39319;52.944;5.928;2023-04-15T11:00:50;14.70;85.30
53422;DHT22;39319;52.944;5.928;2023-04-15T11:03:40;14.70;86.40
53422;DHT22;39319;52.944;5.928;2023-04-15T11:06:07;14.60;86.50
53422;DHT22;39319;52.944;5.928;2023-04-15T11:08:58;14.50;86.30
53422;DHT22;39319;52.944;5.928;2023-04-15T11:14:32;14.30;86.50
53422;DHT22;39319;52.944;5.928;2023-04-15T11:16:59;14.30;86.10
53422;DHT22;39319;52.944;5.928;2023-04-15T11:19:35;14.10;86.60
53422;DHT22;39319;52.944;5.928;2023-04-15T11:22:10;14.00;87.50
53422;DHT22;39319;52.944;5.928;2023-04-15T11:24:46;14.00;88.30
53422;DHT22;39319;52.944;5.928;2023-04-15T11:27:22;13.90;89.00
53422;DHT22;39319;52.944;5.928;2023-04-15T11:29:48;13.90;88.50
53422;DHT22;39319;52.944;5.928;2023-04-15T11:32:13;13.90;88.40
53422;DHT22;39319;52.944;5.928;2023-04-15T11:34:39;13.90;88.50
53422;DHT22;39319;52.944;5.928;2023-04-15T11:37:05;13.80;89.50
53422;DHT22;39319;52.944;5.928;2023-04-15T11:39:32;13.80;89.70
53422;DHT22;39319;52.944;5.928;2023-04-15T11:41:58;13.80;88.60
53422;DHT22;39319;52.944;5.928;2023-04-15T11:44:24;13.80;88.40
53422;DHT22;39319;52.944;5.928;2023-04-15T11:46:49;13.80;89.00
53422;DHT22;39319;52.944;5.928;2023-04-15T11:49:28;13.70;89.20
53422;DHT22;39319;52.944;5.928;2023-04-15T11:51:55;13.80;89.50
53422;DHT22;39319;52.944;5.928;2023-04-15T11:54:21;13.70;88.90
53422;DHT22;39319;52.944;5.928;2023-04-15T11:56:51;13.80;89.30
53422;DHT22;39319;52.944;5.928;2023-04-15T11:59:18;13.70;89.80
53422;DHT22;39319;52.944;5.928;2023-04-15T12:01:43;13.80;89.00
53422;DHT22;39319;52.944;5.928;2023-04-15T12:04:18;13.80;89.80
53422;DHT22;39319;52.944;5.928;2023-04-15T12:06:46;13.50;89.80
53422;DHT22;39319;52.944;5.928;2023-04-15T12:09:13;13.60;89.90
53422;DHT22;39319;52.944;5.928;2023-04-15T12:16:45;13.40;90.20
53422;DHT22;39319;52.944;5.928;2023-04-15T12:19:18;13.50;90.20
53422;DHT22;39319;52.944;5.928;2023-04-15T12:21:46;13.40;90.40
53422;DHT22;39319;52.944;5.928;2023-04-15T12:24:12;13.30;90.70
53422;DHT22;39319;52.944;5.928;2023-04-15T12:26:47;13.20;91.10
53422;DHT22;39319;52.944;5.928;2023-04-15T12:29:14;13.00;90.90
53422;DHT22;39319;52.944;5.928;2023-04-15T12:32:04;13.20;90.90
53422;DHT22;39319;52.944;5.928;2023-04-15T12:37:00;13.00;91.00
53422;DHT22;39319;52.944;5.928;2023-04-15T12:39:34;13.10;91.20
53422;DHT22;39319;52.944;5.928;2023-04-15T12:42:00;13.00;91.00
53422;DHT22;39319;52.944;5.928;2023-04-15T12:44:26;13.10;90.70
53422;DHT22;39319;52.944;5.928;2023-04-15T12:46:52;12.90;90.60
53422;DHT22;39319;52.944;5.928;2023-04-15T12:49:22;12.80;90.90
53422;DHT22;39319;52.944;5.928;2023-04-15T12:51:50;12.90;90.90
53422;DHT22;39319;52.944;5.928;2023-04-15T12:54:16;12.70;91.00
53422;DHT22;39319;52.944;5.928;2023-04-15T12:56:43;12.80;91.20
53422;DHT22;39319;52.944;5.928;2023-04-15T12:59:10;12.70;91.00
53422;DHT22;39319;52.944;5.928;2023-04-15T13:01:37;12.60;91.30
53422;DHT22;39319;52.944;5.928;2023-04-15T13:04:05;12.60;91.20
53422;DHT22;39319;52.944;5.928;2023-04-15T13:06:31;12.60;91.40
53422;DHT22;39319;52.944;5.928;2023-04-15T13:09:01;12.60;91.40
53422;DHT22;39319;52.944;5.928;2023-04-15T13:11:28;12.60;91.30
53422;DHT22;39319;52.944;5.928;2023-04-15T13:14:03;12.60;91.30
53422;DHT22;39319;52.944;5.928;2023-04-15T13:16:30;12.50;91.20
53422;DHT22;39319;52.944;5.928;2023-04-15T13:18:57;12.50;91.00
53422;DHT22;39319;52.944;5.928;2023-04-15T13:21:23;12.60;91.20
53422;DHT22;39319;52.944;5.928;2023-04-15T13:23:49;12.50;91.30
53422;DHT22;39319;52.944;5.928;2023-04-15T13:26:18;12.50;91.40
53422;DHT22;39319;52.944;5.928;2023-04-15T13:28:44;12.30;91.60
53422;DHT22;39319;52.944;5.928;2023-04-15T13:31:10;12.30;91.60
53422;DHT22;39319;52.944;5.928;2023-04-15T13:33:36;12.20;91.40
53422;DHT22;39319;52.944;5.928;2023-04-15T13:36:02;12.50;91.70
53422;DHT22;39319;52.944;5.928;2023-04-15T13:38:28;12.40;91.60
53422;DHT22;39319;52.944;5.928;2023-04-15T13:40:53;12.50;91.60
53422;DHT22;39319;52.944;5.928;2023-04-15T13:43:19;12.40;91.30
53422;DHT22;39319;52.944;5.928;2023-04-15T13:45:46;12.40;91.60
53422;DHT22;39319;52.944;5.928;2023-04-15T13:48:12;12.40;91.50
53422;DHT22;39319;52.944;5.928;2023-04-15T13:50:38;12.30;91.70
53422;DHT22;39319;52.944;5.928;2023-04-15T13:53:04;12.40;91.70
53422;DHT22;39319;52.944;5.928;2023-04-15T13:55:32;12.30;91.70
53422;DHT22;39319;52.944;5.928;2023-04-15T13:57:59;12.40;91.70
53422;DHT22;39319;52.944;5.928;2023-04-15T14:00:25;12.40;92.00
53422;DHT22;39319;52.944;5.928;2023-04-15T14:02:51;12.50;92.10
53422;DHT22;39319;52.944;5.928;2023-04-15T14:05:16;12.50;92.10
53422;DHT22;39319;52.944;5.928;2023-04-15T14:07:42;12.50;91.90
53422;DHT22;39319;52.944;5.928;2023-04-15T14:10:08;12.60;92.00
53422;DHT22;39319;52.944;5.928;2023-04-15T14:12:33;12.60;92.00
53422;DHT22;39319;52.944;5.928;2023-04-15T14:15:02;12.60;91.90
53422;DHT22;39319;52.944;5.928;2023-04-15T14:17:28;12.70;91.70
53422;DHT22;39319;52.944;5.928;2023-04-15T14:19:53;12.80;91.60
53422;DHT22;39319;52.944;5.928;2023-04-15T14:22:19;12.60;91.30
53422;DHT22;39319;52.944;5.928;2023-04-15T14:24:45;12.70;91.40
53422;DHT22;39319;52.944;5.928;2023-04-15T14:27:13;12.70;91.20
53422;DHT22;39319;52.944;5.928;2023-04-15T14:29:38;12.60;91.40
53422;DHT22;39319;52.944;5.928;2023-04-15T14:32:04;12.60;91.30
53422;DHT22;39319;52.944;5.928;2023-04-15T14:34:31;12.40;91.40
53422;DHT22;39319;52.944;5.928;2023-04-15T14:36:56;12.60;91.60
53422;DHT22;39319;52.944;5.928;2023-04-15T14:39:22;12.50;91.30
53422;DHT22;39319;52.944;5.928;2023-04-15T14:41:48;12.50;91.60
53422;DHT22;39319;52.944;5.928;2023-04-15T14:44:14;12.60;91.40
53422;DHT22;39319;52.944;5.928;2023-04-15T14:46:39;12.60;91.50
53422;DHT22;39319;52.944;5.928;2023-04-15T14:49:05;12.40;91.70
53422;DHT22;39319;52.944;5.928;2023-04-15T14:51:32;12.50;91.70
53422;DHT22;39319;52.944;5.928;2023-04-15T14:53:58;12.40;91.60
53422;DHT22;39319;52.944;5.928;2023-04-15T14:56:23;12.40;91.70
53422;DHT22;39319;52.944;5.928;2023-04-15T14:58:49;12.40;91.80
53422;DHT22;39319;52.944;5.928;2023-04-15T15:01:17;12.30;92.00
53422;DHT22;39319;52.944;5.928;2023-04-15T15:03:43;12.50;92.10
53422;DHT22;39319;52.944;5.928;2023-04-15T15:06:09;12.40;92.00
53422;DHT22;39319;52.944;5.928;2023-04-15T15:08:35;12.60;92.20
53422;DHT22;39319;52.944;5.928;2023-04-15T15:11:01;12.50;92.00
53422;DHT22;39319;52.944;5.928;2023-04-15T15:13:27;12.40;92.10
53422;DHT22;39319;52.944;5.928;2023-04-15T15:15:53;12.60;92.00
53422;DHT22;39319;52.944;5.928;2023-04-15T15:18:19;12.50;91.80
53422;DHT22;39319;52.944;5.928;2023-04-15T15:20:45;12.40;92.10
53422;DHT22;39319;52.944;5.928;2023-04-15T15:23:13;12.60;92.00
53422;DHT22;39319;52.944;5.928;2023-04-15T15:25:42;12.50;92.20
53422;DHT22;39319;52.944;5.928;2023-04-15T15:28:08;12.30;92.20
53422;DHT22;39319;52.944;5.928;2023-04-15T15:30:34;12.40;92.20
53422;DHT22;39319;52.944;5.928;2023-04-15T15:33:00;12.40;92.10
53422;DHT22;39319;52.944;5.928;2023-04-15T15:35:26;12.30;92.20
53422;DHT22;39319;52.944;5.928;2023-04-15T15:37:52;12.30;92.20
53422;DHT22;39319;52.944;5.928;2023-04-15T15:40:17;12.20;92.30
53422;DHT22;39319;52.944;5.928;2023-04-15T15:42:43;12.30;92.50
53422;DHT22;39319;52.944;5.928;2023-04-15T15:45:09;12.20;92.10